X  Κλείσε Στοιχεία αεροπορικών μετεωρολογικών δεδομένων METAR     LGRX Patras Araxos Agamemnon Airport
Θερμοκρασία
12°C Θερμοκρασία
11°C Σημείο δρόσου
94% Υγρασία



Άνεμος
0 KM/H
0 MPH
0 M/S
0 KTS



Άπνοια
Βόρεια
Τρέχουσες Συνθήκες

Μερικώς Νεφελώδης Μερικώς Νεφελώδης
Πίεση 1023.92 (hPa) - 30.24 (inHg)
Ορατότητα 6.2 (μίλια) - 10 (km)
Aεροδρόμιο
Κωδικός Αεροδρομίου LGRX

Τοποθεσία: Patras Araxos Agamemnon Airport
Απόσταση: 108 (km)

Metar:
LGRX 210150Z 00000KT 9999 FEW020 12/11 Q1024

ώρα: 21-10-2021 04:50 EEST